In Rescue
 
Open Full Screen Window  High Contrast Mode
Wind Gusting 00 knots
07
January 24, 2020 9:22 PM EST
Present Weather: Unknown Precipitation
Weather Information
Wind Direction
  100 °
Wind Speed
  07 kt (8 mph)
Wind Gust
  00 kt (0 mph)
Altimeter
29.84 in
Visibility
4 SM
Temperature
02° C
36° F
Dewpoint
02° C
36° F
Humidity
100%
Sky Condition
Overcast @ 500 ft
IFR

METAR KBAX 250222Z AUTO 10007KT 4SM UP OVC005 02/02 A2984 RMK AO2 T00200016

FAA Disclaimer: The data displayed is for advisory purposes only and is not to be used for flight planning or operations.